地図

経路データ

SID SEASON NUMBER BASIN SUBBASIN NAME ISO_TIME NATURE LAT LON WMO_WIND WMO_PRES WMO_AGENCY TRACK_TYPE DIST2LAND LANDFALL IFLAG USA_AGENCY USA_ATCF_ID USA_LAT USA_LON USA_RECORD USA_STATUS USA_WIND USA_PRES USA_SSHS USA_R34_NE USA_R34_SE USA_R34_SW USA_R34_NW USA_R50_NE USA_R50_SE USA_R50_SW USA_R50_NW USA_R64_NE USA_R64_SE USA_R64_SW USA_R64_NW USA_POCI USA_ROCI USA_RMW USA_EYE TOKYO_LAT TOKYO_LON TOKYO_GRADE TOKYO_WIND TOKYO_PRES TOKYO_R50_DIR TOKYO_R50_LONG TOKYO_R50_SHORT TOKYO_R30_DIR TOKYO_R30_LONG TOKYO_R30_SHORT TOKYO_LAND CMA_LAT CMA_LON CMA_CAT CMA_WIND CMA_PRES HKO_LAT HKO_LON HKO_CAT HKO_WIND HKO_PRES NEWDELHI_LAT NEWDELHI_LON NEWDELHI_GRADE NEWDELHI_WIND NEWDELHI_PRES NEWDELHI_CI NEWDELHI_DP NEWDELHI_POCI REUNION_LAT REUNION_LON REUNION_TYPE REUNION_WIND REUNION_PRES REUNION_TNUM REUNION_CI REUNION_RMW REUNION_R34_NE REUNION_R34_SE REUNION_R34_SW REUNION_R34_NW REUNION_R50_NE REUNION_R50_SE REUNION_R50_SW REUNION_R50_NW REUNION_R64_NE REUNION_R64_SE REUNION_R64_SW REUNION_R64_NW BOM_LAT BOM_LON BOM_TYPE BOM_WIND BOM_PRES BOM_TNUM BOM_CI BOM_RMW BOM_R34_NE BOM_R34_SE BOM_R34_SW BOM_R34_NW BOM_R50_NE BOM_R50_SE BOM_R50_SW BOM_R50_NW BOM_R64_NE BOM_R64_SE BOM_R64_SW BOM_R64_NW BOM_ROCI BOM_POCI BOM_EYE BOM_POS_METHOD BOM_PRES_METHOD NADI_LAT NADI_LON NADI_CAT NADI_WIND NADI_PRES WELLINGTON_LAT WELLINGTON_LON WELLINGTON_WIND WELLINGTON_PRES DS824_LAT DS824_LON DS824_STAGE DS824_WIND DS824_PRES TD9636_LAT TD9636_LON TD9636_STAGE TD9636_WIND TD9636_PRES TD9635_LAT TD9635_LON TD9635_WIND TD9635_PRES TD9635_ROCI NEUMANN_LAT NEUMANN_LON NEUMANN_CLASS NEUMANN_WIND NEUMANN_PRES MLC_LAT MLC_LON MLC_CLASS MLC_WIND MLC_PRES USA_GUST BOM_GUST BOM_GUST_PER REUNION_GUST REUNION_GUST_PER USA_SEAHGT USA_SEARAD_NE USA_SEARAD_SE USA_SEARAD_SW USA_SEARAD_NW STORM_SPEED STORM_DIR
1953117S09096 1953 21 SI WA NOT_NAMED 1953-04-27 06:00:00 TS -8.60000 96.3000 main 822 822 O________OO___ jtwc_sh SH231953 -8.60000 96.3000 -1 -8.60000 96.3000 TC 25 -8.60000 96.3000 7 17 245
1953117S09096 1953 21 SI WA NOT_NAMED 1953-04-27 09:00:00 TS -8.95168 95.5467 main 899 899 P________PP___ SH231953 -8.95036 95.5328 -1 -8.95036 95.5328 TC 30 -8.95431 95.5746 7 16 244
1953117S09096 1953 21 SI WA NOT_NAMED 1953-04-27 12:00:00 TS -9.30212 94.8196 main 964 964 O________OP___ jtwc_sh SH231953 -9.30000 94.8000 -1 -9.30000 94.8000 TC 35 -9.30635 94.8587 7 16 243
1953117S09096 1953 21 SI WA NOT_NAMED 1953-04-27 15:00:00 TS -9.65161 94.1394 main 1041 1041 P________PP___ SH231953 -9.64983 94.1274 -1 -9.64983 94.1274 TC 50 -9.65517 94.1635 7 15 242
1953117S09096 1953 21 SI WA NOT_NAMED 1953-04-27 18:00:00 TS -10.0000 93.5000 main 1105 1105 O________OO___ jtwc_sh SH231953 -10.0000 93.5000 -1 -10.0000 93.5000 TC 65 -10.0000 93.5000 4 14 241
1953117S09096 1953 21 SI WA NOT_NAMED 1953-04-27 21:00:00 TS -10.3470 92.8821 main 1169 1169 P________PP___ SH231953 -10.3499 92.8849 -1 -10.3499 92.8849 TC 65 -10.3414 92.8764 4 14 240
1953117S09096 1953 21 SI WA NOT_NAMED 1953-04-28 00:00:00 TS -10.6948 92.2965 main 1244 1244 O________OP___ jtwc_sh SH231953 -10.7000 92.3000 -1 -10.7000 92.3000 TC 65 -10.6844 92.2894 4 13 238
1953117S09096 1953 21 SI WA NOT_NAMED 1953-04-28 03:00:00 TS -11.0400 91.7341 main 1310 1310 P________PP___ SH231953 -11.0424 91.7348 -1 -11.0424 91.7348 TC 65 -11.0352 91.7326 4 13 237
1953117S09096 1953 21 SI WA NOT_NAMED 1953-04-28 06:00:00 TS -11.4000 91.2000 main 1379 1379 O________OO___ jtwc_sh SH231953 -11.4000 91.2000 -1 -11.4000 91.2000 TC 65 -11.4000 91.2000 4 13 234
1953117S09096 1953 21 SI WA NOT_NAMED 1953-04-28 09:00:00 TS -11.7873 90.6835 main 1449 1449 P________PP___ SH231953 -11.7924 90.6924 -1 -11.7924 90.6924 TC 65 -11.7772 90.6659 4 13 232
1953117S09096 1953 21 SI WA NOT_NAMED 1953-04-28 12:00:00 TS -12.1899 90.1848 main 1518 1518 O________OP___ jtwc_sh SH231953 -12.2000 90.2000 -1 -12.2000 90.2000 TC 65 -12.1696 90.1545 4 13 231
1953117S09096 1953 21 SI MM NOT_NAMED 1953-04-28 15:00:00 TS -12.5874 89.6835 main 1587 1587 P________PP___ SH231953 -12.5924 89.6923 -1 -12.5924 89.6923 TC 65 -12.5773 89.6658 4 13 230
1953117S09096 1953 21 SI MM NOT_NAMED 1953-04-28 18:00:00 TS -13.0000 89.2000 main 1656 1656 O________OO___ jtwc_sh SH231953 -13.0000 89.2000 -1 -13.0000 89.2000 TC 65 -13.0000 89.2000 4 13 227
1953117S09096 1953 21 SI MM NOT_NAMED 1953-04-28 21:00:00 TS -13.4414 88.7343 main 1726 1726 P________PP___ SH231953 -13.4424 88.7349 -1 -13.4424 88.7349 TC 65 -13.4395 88.7330 4 13 224
1953117S09096 1953 21 SI MM NOT_NAMED 1953-04-29 00:00:00 TS -13.8974 88.2966 main 1796 1796 O________OP___ jtwc_sh SH231953 -13.9000 88.3000 -1 -13.9000 88.3000 TC 65 -13.8923 88.2899 4 12 222
1953117S09096 1953 21 SI MM NOT_NAMED 1953-04-29 03:00:00 TS -14.3546 87.8822 main 1867 1867 P________PP___ SH231953 -14.3574 87.8849 -1 -14.3574 87.8849 TC 65 -14.3490 87.8768 4 12 220
1953117S09096 1953 21 SI MM NOT_NAMED 1953-04-29 06:00:00 TS -14.8000 87.5000 main 1929 1929 O________OO___ jtwc_sh SH231953 -14.8000 87.5000 -1 -14.8000 87.5000 TC 65 -14.8000 87.5000 4 11 220
1953117S09096 1953 21 SI MM NOT_NAMED 1953-04-29 09:00:00 TS -15.2025 87.1353 main 1991 1991 P________PP___ SH231953 -15.2000 87.1273 -1 -15.2000 87.1273 TC 65 -15.2075 87.1511 4 10 220
1953117S09096 1953 21 SI MM NOT_NAMED 1953-04-29 12:00:00 TS -15.6041 86.8130 main 2046 2046 O________OP___ jtwc_sh SH231953 -15.6000 86.8000 -1 -15.6000 86.8000 TC 65 -15.6122 86.8390 4 10 215
1953117S09096 1953 21 SI MM NOT_NAMED 1953-04-29 15:00:00 TS -16.0302 86.5423 main 2101 2101 P________PP___ SH231953 -16.0274 86.5348 -1 -16.0274 86.5348 TC 65 -16.0357 86.5574 4 10 209
1953117S09096 1953 21 SI MM NOT_NAMED 1953-04-29 18:00:00 TS -16.5000 86.3000 main 2157 2157 O________OO___ jtwc_sh SH231953 -16.5000 86.3000 -1 -16.5000 86.3000 TC 65 -16.5000 86.3000 4 11 206
1953117S09096 1953 21 SI MM NOT_NAMED 1953-04-29 21:00:00 TS -17.0235 86.0406 main 2220 2220 P________PP___ SH231953 -17.0275 86.0424 -1 -17.0275 86.0424 TC 65 -17.0156 86.0371 4 12 204
1953117S09096 1953 21 SI MM NOT_NAMED 1953-04-30 00:00:00 TS -17.5917 85.7991 main 2285 2285 O________OP___ jtwc_sh SH231953 -17.6000 85.8000 -1 -17.6000 85.8000 TC 65 -17.5750 85.7974 4 12 201
1953117S09096 1953 21 SI MM NOT_NAMED 1953-04-30 03:00:00 TS -18.1756 85.5846 main 2350 2350 P________PP___ SH231953 -18.1775 85.5849 -1 -18.1775 85.5849 TC 65 -18.1719 85.5840 4 13 197
1953117S09096 1953 21 SI MM NOT_NAMED 1953-04-30 06:00:00 TS -18.8000 85.4000 main 2415 2415 O________OO___ jtwc_sh SH231953 -18.8000 85.4000 -1 -18.8000 85.4000 TC 65 -18.8000 85.4000 4 14 195
1953117S09096 1953 21 SI MM NOT_NAMED 1953-04-30 09:00:00 TS -19.4811 85.2280 main 2489 2489 P________PP___ SH231953 -19.4925 85.2349 -1 -19.4925 85.2349 TC 65 -19.4583 85.2141 4 14 192
1953117S09096 1953 21 SI MM NOT_NAMED 1953-04-30 12:00:00 TS -20.1808 85.0869 main 2557 2557 O________OP___ jtwc_sh SH231953 -20.2000 85.1000 -1 -20.2000 85.1000 TC 65 -20.1424 85.0608 4 14 190
1953117S09096 1953 21 SI MM NOT_NAMED 1953-04-30 15:00:00 TS -20.8534 84.9690 main 2626 2626 P________PP___ SH231953 -20.8650 84.9775 -1 -20.8650 84.9775 TC 65 -20.8303 84.9519 4 13 188
1953117S09096 1953 21 SI MM NOT_NAMED 1953-04-30 18:00:00 TS -21.5000 84.9000 main 2686 2686 O________OO___ jtwc_sh SH231953 -21.5000 84.9000 -1 -21.5000 84.9000 TC 65 -21.5000 84.9000 4 13 183
1953117S09096 1953 21 SI MM NOT_NAMED 1953-04-30 21:00:00 TS -22.1166 84.8793 main 2740 2740 P________PP___ SH231953 -22.1075 84.8626 -1 -22.1075 84.8626 TC 65 -22.1350 84.9128 4 12 0
1953117S09096 1953 21 SI MM NOT_NAMED 1953-05-01 00:00:00 TS -22.7133 84.9261 main 2795 2795 O________OP___ jtwc_sh SH231953 -22.7000 84.9000 -1 -22.7000 84.9000 TC 65 -22.7400 84.9784 4 12 173
1953117S09096 1953 21 SI MM NOT_NAMED 1953-05-01 03:00:00 TS -23.3067 85.0430 main 2823 2823 P________PP___ SH231953 -23.2976 85.0246 -1 -23.2976 85.0246 TC 65 -23.3251 85.0799 4 12 168
1953117S09096 1953 21 SI MM NOT_NAMED 1953-05-01 06:00:00 TS -23.9000 85.2000 main 2834 O________OO___ jtwc_sh SH231953 -23.9000 85.2000 -1 -23.9000 85.2000 TC 65 -23.9000 85.2000 4 12 166

IBTrACS Databaseについて

本データベースは、米国NOAAが公開する1842年以降の世界の熱帯低気圧のベストトラックデータアーカイブInternational Best Track Archive for Climate Stewardship (IBTrACS)を、ウェブで閲覧しやすい形式に変換したものです。

最終更新日:2021-11-26